Time;durP1;ratioP1;P1;durP2;ratioP2;P2;SDS_P1;SDS_P2;PMS_P1;PMS_P2;Temp;Humidity;BMP_temperature;BMP_pressure;BME280_temperature;BME280_humidity;BME280_pressure;Samples;Min_cycle;Max_cycle;Signal;HPM_P1;HPM_P2
2022/04/18 00:00:04;;;;;;;4.80;4.40;;;8.40;71.20;;;;;;5116415;28;20201;-67
2022/04/18 00:02:31;;;;;;;5.55;4.90;;;8.40;71.50;;;;;;5116369;28;20587;-67
2022/04/18 00:04:59;;;;;;;4.47;4.07;;;8.40;72.00;;;;;;5116159;27;20284;-67
2022/04/18 00:07:25;;;;;;;4.72;4.30;;;8.40;72.40;;;;;;5116282;28;20254;-67
2022/04/18 00:09:52;;;;;;;4.97;4.47;;;8.40;72.30;;;;;;5116179;28;20623;-67
2022/04/18 00:12:19;;;;;;;5.15;4.65;;;8.40;71.70;;;;;;5116229;28;20225;-67
2022/04/18 00:14:46;;;;;;;5.30;4.80;;;8.30;71.40;;;;;;5115914;27;20228;-67
2022/04/18 00:17:15;;;;;;;4.35;3.95;;;8.20;71.40;;;;;;5116090;28;20217;-67
2022/04/18 00:19:41;;;;;;;4.90;4.53;;;8.30;72.10;;;;;;5116058;28;20201;-66
2022/04/18 00:22:08;;;;;;;5.78;5.03;;;8.20;72.50;;;;;;5115737;28;20225;-67
2022/04/18 00:24:35;;;;;;;5.53;4.65;;;8.20;73.10;;;;;;5115510;28;20667;-67
2022/04/18 00:27:02;;;;;;;4.68;4.25;;;8.10;73.60;;;;;;5115865;28;20197;-67
2022/04/18 00:29:29;;;;;;;4.97;4.47;;;8.00;74.00;;;;;;5115708;28;20217;-67
2022/04/18 00:31:56;;;;;;;5.00;4.53;;;8.10;74.00;;;;;;5115713;28;20225;-67
2022/04/18 00:34:24;;;;;;;5.90;5.10;;;8.10;73.70;;;;;;5115317;28;20204;-67
2022/04/18 00:36:51;;;;;;;6.00;5.40;;;8.00;73.30;;;;;;5115488;28;20288;-67
2022/04/18 00:39:18;;;;;;;6.32;5.72;;;7.90;73.80;;;;;;5115421;28;20237;-67
2022/04/18 00:41:45;;;;;;;6.40;5.80;;;7.90;74.50;;;;;;5115275;28;20313;-67
2022/04/18 00:44:11;;;;;;;6.20;5.60;;;7.90;75.30;;;;;;5114998;28;20221;-67
2022/04/18 00:46:38;;;;;;;6.40;5.32;;;7.90;76.00;;;;;;5115497;28;20198;-67
2022/04/18 00:49:05;;;;;;;6.57;5.25;;;7.90;75.70;;;;;;5115476;28;20292;-67
2022/04/18 00:51:34;;;;;;;6.10;5.50;;;7.90;75.40;;;;;;5115580;28;20217;-67
2022/04/18 00:54:01;;;;;;;5.80;5.30;;;7.80;75.80;;;;;;5115183;28;20678;-66
2022/04/18 00:56:28;;;;;;;6.25;5.05;;;7.80;76.50;;;;;;5115100;28;20207;-67
2022/04/18 00:58:56;;;;;;;7.57;5.70;;;7.80;77.20;;;;;;5115215;28;20297;-67
2022/04/18 01:01:24;;;;;;;6.35;5.68;;;7.80;77.50;;;;;;5115126;28;20278;-67
2022/04/18 01:03:51;;;;;;;6.43;5.20;;;7.80;78.00;;;;;;5114991;28;20221;-66
2022/04/18 01:06:19;;;;;;;6.18;5.65;;;7.80;78.10;;;;;;5115108;28;20207;-67
2022/04/18 01:08:48;;;;;;;6.22;5.63;;;7.70;78.10;;;;;;5115096;27;20208;-67
2022/04/18 01:11:16;;;;;;;6.60;5.95;;;7.70;79.10;;;;;;5114932;28;20205;-67
2022/04/18 01:13:44;;;;;;;7.03;6.20;;;7.60;79.50;;;;;;5114938;28;20261;-67
2022/04/18 01:16:11;;;;;;;6.50;5.85;;;7.50;80.10;;;;;;5115018;28;20227;-67
2022/04/18 01:18:38;;;;;;;8.18;5.95;;;7.50;80.50;;;;;;5114864;28;20292;-67
2022/04/18 01:21:07;;;;;;;6.68;5.68;;;7.50;80.80;;;;;;5114579;28;20663;-67
2022/04/18 01:23:34;;;;;;;6.28;5.68;;;7.60;80.40;;;;;;5114322;28;20211;-66
2022/04/18 01:28:59;;;;;;;6.15;5.55;;;7.60;81.00;;;;;;5051823;28;20199;-67
2022/04/18 01:31:26;;;;;;;5.90;5.20;;;7.50;81.70;;;;;;5100390;28;20218;-67
2022/04/18 01:33:53;;;;;;;6.72;6.07;;;7.60;81.20;;;;;;5114511;28;20199;-67
2022/04/18 01:36:21;;;;;;;5.63;5.13;;;7.60;82.10;;;;;;5114592;28;20295;-67
2022/04/18 01:38:48;;;;;;;5.70;5.07;;;7.70;82.40;;;;;;5114595;28;20198;-67
2022/04/18 01:41:14;;;;;;;5.57;4.72;;;7.70;82.30;;;;;;5114359;28;20205;-67
2022/04/18 01:43:41;;;;;;;6.07;5.47;;;7.70;82.40;;;;;;5114451;28;20292;-67
2022/04/18 01:46:08;;;;;;;5.43;4.93;;;7.70;82.90;;;;;;5114189;28;20240;-67
2022/04/18 01:48:35;;;;;;;6.03;5.53;;;7.70;82.40;;;;;;5114407;28;20201;-67
2022/04/18 01:51:02;;;;;;;6.25;5.63;;;7.70;83.10;;;;;;5114144;28;20655;-67
2022/04/18 01:53:31;;;;;;;5.47;4.97;;;7.70;83.10;;;;;;5114208;27;20202;-67
2022/04/18 01:55:58;;;;;;;5.72;5.10;;;7.60;83.50;;;;;;5114272;28;20250;-67
2022/04/18 01:58:24;;;;;;;6.63;5.35;;;7.60;84.20;;;;;;5114196;28;20667;-67
2022/04/18 02:00:51;;;;;;;6.13;5.53;;;7.50;85.20;;;;;;5114214;28;20205;-67
2022/04/18 02:03:18;;;;;;;7.50;6.03;;;7.50;85.80;;;;;;5114087;28;20228;-67
2022/04/18 02:05:47;;;;;;;7.03;6.40;;;7.50;86.70;;;;;;5113786;28;20224;-67
2022/04/18 02:08:14;;;;;;;7.72;6.93;;;7.50;87.60;;;;;;5114380;28;20227;-67
2022/04/18 02:10:43;;;;;;;7.55;6.60;;;7.50;88.70;;;;;;5113944;28;20201;-67
2022/04/18 02:13:10;;;;;;;7.07;6.38;;;7.40;89.50;;;;;;5114014;28;20653;-67
2022/04/18 02:15:37;;;;;;;6.82;6.20;;;7.40;88.70;;;;;;5113850;28;20201;-67
2022/04/18 02:18:04;;;;;;;7.55;6.85;;;7.30;88.70;;;;;;5114053;28;20571;-67
2022/04/18 02:20:31;;;;;;;6.57;5.97;;;7.20;89.20;;;;;;5114007;28;20296;-67
2022/04/18 02:22:58;;;;;;;6.53;5.85;;;7.10;89.30;;;;;;5113825;28;20578;-67
2022/04/18 02:25:25;;;;;;;6.72;5.55;;;7.00;89.00;;;;;;5113841;28;20220;-67
2022/04/18 02:27:53;;;;;;;6.53;5.93;;;7.00;89.50;;;;;;5114257;28;20207;-67
2022/04/18 02:30:20;;;;;;;6.15;5.60;;;7.00;90.50;;;;;;5113820;28;20231;-67
2022/04/18 02:32:50;;;;;;;6.45;5.75;;;6.90;90.70;;;;;;5113925;28;20228;-67
2022/04/18 02:35:17;;;;;;;8.23;5.93;;;6.90;90.30;;;;;;5113771;28;20200;-66
2022/04/18 02:37:44;;;;;;;5.70;5.20;;;6.80;90.10;;;;;;5113739;28;20671;-67
2022/04/18 02:40:12;;;;;;;7.20;5.75;;;6.90;90.00;;;;;;5113861;28;20198;-67
2022/04/18 02:42:39;;;;;;;6.93;6.22;;;6.80;90.20;;;;;;5113851;28;20251;-67
2022/04/18 02:45:08;;;;;;;6.40;5.45;;;6.70;90.60;;;;;;5113711;28;20229;-67
2022/04/18 02:47:35;;;;;;;6.38;5.10;;;6.70;91.40;;;;;;5113762;28;20212;-66
2022/04/18 02:50:01;;;;;;;7.50;6.90;;;6.80;91.30;;;;;;5113649;28;20202;-67
2022/04/18 02:52:28;;;;;;;6.55;5.93;;;6.80;91.20;;;;;;5113473;28;20308;-67
2022/04/18 02:54:55;;;;;;;6.18;5.57;;;6.90;90.80;;;;;;5113552;28;20204;-67
2022/04/18 02:57:22;;;;;;;6.10;5.60;;;6.90;90.50;;;;;;5113504;28;20292;-67
2022/04/18 02:59:49;;;;;;;6.97;5.60;;;6.90;91.00;;;;;;5113648;28;20205;-67
2022/04/18 03:02:17;;;;;;;5.97;5.30;;;6.90;91.20;;;;;;5113590;28;20221;-66
2022/04/18 03:04:43;;;;;;;6.28;5.65;;;6.90;91.40;;;;;;5113451;28;20586;-67
2022/04/18 03:07:10;;;;;;;6.88;6.15;;;6.80;91.60;;;;;;5116677;28;20197;-66
2022/04/18 03:09:37;;;;;;;7.78;6.50;;;6.90;91.80;;;;;;5117208;28;20662;-67
2022/04/18 03:12:06;;;;;;;8.93;6.20;;;6.80;91.80;;;;;;5117385;28;20324;-67
2022/04/18 03:14:33;;;;;;;6.75;5.53;;;6.70;91.80;;;;;;5116877;28;20204;-67
2022/04/18 03:17:00;;;;;;;5.85;5.25;;;6.70;92.10;;;;;;5117271;28;20201;-66
2022/04/18 03:19:28;;;;;;;6.57;5.88;;;6.70;92.10;;;;;;5117212;28;20201;-66
2022/04/18 03:21:55;;;;;;;7.22;6.40;;;6.70;92.20;;;;;;5117201;28;20217;-67
2022/04/18 03:24:22;;;;;;;6.90;6.30;;;6.70;92.40;;;;;;5116941;28;20216;-67
2022/04/18 03:26:49;;;;;;;6.45;5.72;;;6.80;92.90;;;;;;5116945;28;20213;-67
2022/04/18 03:29:16;;;;;;;7.63;6.43;;;6.80;93.00;;;;;;5116947;28;20237;-67
2022/04/18 03:31:42;;;;;;;8.63;7.03;;;6.80;93.00;;;;;;5116800;28;20304;-66
2022/04/18 03:34:09;;;;;;;7.55;6.85;;;6.70;93.60;;;;;;5116826;28;20201;-67
2022/04/18 03:42:09;;;;;;;6.93;6.22;;;6.60;93.10;;;;;;5117122;28;20232;-67
2022/04/18 03:44:40;;;;;;;7.28;6.53;;;6.60;93.30;;;;;;5116759;28;20224;-66
2022/04/18 03:47:07;;;;;;;9.18;6.75;;;6.60;93.50;;;;;;5117192;28;20287;-66
2022/04/18 03:49:34;;;;;;;9.55;6.75;;;6.60;93.70;;;;;;5116693;28;20284;-67
2022/04/18 03:52:02;;;;;;;8.93;6.55;;;6.50;94.20;;;;;;5116563;28;20556;-66
2022/04/18 03:54:28;;;;;;;7.32;6.43;;;6.40;94.70;;;;;;5116509;28;20197;-67
2022/04/18 03:56:55;;;;;;;8.02;7.22;;;6.30;95.10;;;;;;5116558;28;20288;-66
2022/04/18 03:59:22;;;;;;;7.47;6.78;;;6.30;95.50;;;;;;5116510;28;20563;-67
2022/04/18 04:01:49;;;;;;;7.57;6.88;;;6.40;95.60;;;;;;5116417;28;20312;-66
2022/04/18 04:04:16;;;;;;;7.80;7.00;;;6.40;95.70;;;;;;5116204;28;20213;-67
2022/04/18 04:06:42;;;;;;;7.68;6.90;;;6.40;95.70;;;;;;5116472;28;20202;-66
2022/04/18 04:09:11;;;;;;;8.73;6.88;;;6.40;95.70;;;;;;5116484;28;20296;-67
2022/04/18 04:11:37;;;;;;;8.63;7.57;;;6.40;95.70;;;;;;5116617;28;20221;-66
2022/04/18 04:14:04;;;;;;;6.60;6.00;;;6.50;95.80;;;;;;5116073;28;20197;-67
2022/04/18 04:16:31;;;;;;;6.63;5.88;;;6.40;95.40;;;;;;5115665;28;20651;-66
2022/04/18 04:18:58;;;;;;;6.97;6.20;;;6.40;95.10;;;;;;5115655;28;20206;-66
2022/04/18 04:21:25;;;;;;;6.85;6.25;;;6.30;95.10;;;;;;5115966;27;20221;-67
2022/04/18 04:23:52;;;;;;;6.60;5.80;;;6.30;95.30;;;;;;5115918;28;20219;-66
2022/04/18 04:26:20;;;;;;;7.88;7.00;;;6.20;95.40;;;;;;5116130;28;20707;-67
2022/04/18 04:28:47;;;;;;;8.77;7.30;;;6.20;95.50;;;;;;5115517;28;20300;-67
2022/04/18 04:31:14;;;;;;;8.25;6.70;;;6.10;95.70;;;;;;5115685;28;20300;-67
2022/04/18 04:33:41;;;;;;;7.70;6.90;;;6.00;96.20;;;;;;5115692;28;20205;-67
2022/04/18 04:36:08;;;;;;;8.45;6.60;;;6.00;96.60;;;;;;5115670;28;20655;-67
2022/04/18 04:38:35;;;;;;;11.10;8.10;;;5.90;96.90;;;;;;5115604;28;20198;-67
2022/04/18 04:41:02;;;;;;;9.15;7.22;;;6.00;97.00;;;;;;5115593;28;20208;-67
2022/04/18 04:43:31;;;;;;;8.35;6.05;;;5.80;97.00;;;;;;5114662;28;20240;-66
2022/04/18 04:46:00;;;;;;;8.23;6.25;;;5.80;97.20;;;;;;5115560;28;20578;-67
2022/04/18 04:48:27;;;;;;;7.63;6.35;;;5.80;97.30;;;;;;5115480;28;20205;-66
2022/04/18 04:50:54;;;;;;;8.95;6.70;;;5.90;97.00;;;;;;5115477;28;20215;-66
2022/04/18 04:53:21;;;;;;;6.85;6.15;;;5.90;97.10;;;;;;5115254;28;20221;-66
2022/04/18 04:55:48;;;;;;;8.25;6.50;;;6.10;96.70;;;;;;5115439;28;20197;-67
2022/04/18 04:58:15;;;;;;;7.97;6.38;;;6.10;96.20;;;;;;5115364;28;20205;-67
2022/04/18 05:00:43;;;;;;;8.02;6.10;;;6.10;95.50;;;;;;5115640;28;20651;-67
2022/04/18 05:03:10;;;;;;;8.50;6.90;;;6.00;95.40;;;;;;5114885;28;20722;-67
2022/04/18 05:05:37;;;;;;;8.00;6.90;;;5.90;96.00;;;;;;5115003;28;20266;-67
2022/04/18 05:08:04;;;;;;;7.47;6.60;;;5.90;96.90;;;;;;5115166;28;20205;-67
2022/04/18 05:10:31;;;;;;;8.68;7.55;;;6.00;97.60;;;;;;5115671;28;20566;-67
2022/04/18 05:12:58;;;;;;;9.93;6.63;;;6.10;97.90;;;;;;5114890;28;20221;-67
2022/04/18 05:15:25;;;;;;;7.55;6.82;;;6.20;97.70;;;;;;5114870;28;20205;-67
2022/04/18 05:17:53;;;;;;;8.90;8.00;;;6.10;98.30;;;;;;5115024;28;20258;-67
2022/04/18 05:20:21;;;;;;;9.32;7.68;;;6.00;98.10;;;;;;5114823;28;20216;-67
2022/04/18 05:22:50;;;;;;;10.32;7.97;;;6.10;98.90;;;;;;5114595;28;20731;-66
2022/04/18 05:25:16;;;;;;;10.25;9.25;;;5.80;99.60;;;;;;5114822;28;20213;-67
2022/04/18 05:27:43;;;;;;;9.85;8.52;;;5.70;99.90;;;;;;5114821;28;20202;-67
2022/04/18 05:30:11;;;;;;;8.90;8.05;;;5.60;99.90;;;;;;5114409;28;20216;-67
2022/04/18 05:32:37;;;;;;;10.18;7.82;;;5.70;99.90;;;;;;5114451;28;20260;-66
2022/04/18 05:35:07;;;;;;;11.48;8.82;;;5.60;99.90;;;;;;5114482;27;20212;-67
2022/04/18 05:37:33;;;;;;;9.25;8.32;;;5.50;99.90;;;;;;5114592;28;20202;-66
2022/04/18 05:40:00;;;;;;;9.27;8.38;;;5.50;99.90;;;;;;5114471;28;20208;-66
2022/04/18 05:42:27;;;;;;;12.38;8.55;;;5.40;99.90;;;;;;5114462;27;20222;-66
2022/04/18 05:44:54;;;;;;;11.00;8.68;;;5.40;99.90;;;;;;5114407;28;20216;-67
2022/04/18 05:47:21;;;;;;;9.02;7.95;;;5.50;99.90;;;;;;5114442;28;20205;-66
2022/04/18 05:49:47;;;;;;;8.85;7.75;;;5.70;99.90;;;;;;5114146;28;20213;-67
2022/04/18 05:52:16;;;;;;;9.98;8.05;;;5.80;99.90;;;;;;5114387;28;20235;-67
2022/04/18 05:54:43;;;;;;;10.25;8.57;;;5.90;99.90;;;;;;5114211;28;20201;-67
2022/04/18 05:57:09;;;;;;;9.38;8.35;;;5.90;99.90;;;;;;5114119;28;20298;-67
2022/04/18 05:59:36;;;;;;;10.27;8.05;;;5.90;99.90;;;;;;5114356;28;20236;-67
2022/04/18 06:02:04;;;;;;;9.82;8.35;;;5.90;99.90;;;;;;5114467;27;20317;-67
2022/04/18 06:04:31;;;;;;;10.95;9.18;;;5.90;99.90;;;;;;5114042;28;20227;-66
2022/04/18 06:06:57;;;;;;;10.10;8.63;;;5.90;99.90;;;;;;5114137;28;20659;-67
2022/04/18 06:09:26;;;;;;;10.27;8.82;;;5.90;99.90;;;;;;5114161;28;20298;-66
2022/04/18 06:11:53;;;;;;;11.90;9.02;;;5.90;99.90;;;;;;5114130;28;20579;-67
2022/04/18 06:14:20;;;;;;;11.18;9.00;;;6.00;99.90;;;;;;5114012;28;20197;-68
2022/04/18 06:16:47;;;;;;;10.65;9.30;;;6.00;99.90;;;;;;5113990;28;20679;-67
2022/04/18 06:19:13;;;;;;;10.13;9.13;;;6.10;99.90;;;;;;5114068;28;20292;-67
2022/04/18 06:21:41;;;;;;;10.40;9.25;;;6.10;99.90;;;;;;5113974;28;20314;-66
2022/04/18 06:24:08;;;;;;;10.73;9.48;;;6.10;99.90;;;;;;5113893;28;20207;-67
2022/04/18 06:26:36;;;;;;;11.20;9.30;;;6.10;99.90;;;;;;5113982;28;20227;-67
2022/04/18 06:29:03;;;;;;;12.90;9.52;;;6.20;99.90;;;;;;5113832;28;20647;-67
2022/04/18 06:31:30;;;;;;;11.75;10.20;;;6.20;99.90;;;;;;5113887;28;20228;-67
2022/04/18 06:33:56;;;;;;;11.75;9.45;;;6.30;99.90;;;;;;5113842;28;20308;-67
2022/04/18 06:36:23;;;;;;;10.25;9.20;;;6.30;99.90;;;;;;5113894;28;20205;-67
2022/04/18 06:38:50;;;;;;;10.55;9.27;;;6.40;99.90;;;;;;5113854;28;20204;-67
2022/04/18 06:41:18;;;;;;;11.25;9.45;;;6.50;99.90;;;;;;5115736;28;20750;-67
2022/04/18 06:43:46;;;;;;;11.60;9.38;;;6.50;99.90;;;;;;5117693;28;20228;-67
2022/04/18 06:46:13;;;;;;;11.05;9.75;;;6.60;99.90;;;;;;5117824;28;20234;-67
2022/04/18 06:48:39;;;;;;;10.13;9.13;;;6.70;99.90;;;;;;5117860;28;20201;-66
2022/04/18 06:51:06;;;;;;;11.30;9.35;;;6.80;99.90;;;;;;5117739;28;20197;-67
2022/04/18 06:53:33;;;;;;;10.50;9.00;;;6.90;99.90;;;;;;5117408;28;20206;-67
2022/04/18 06:58:46;;;;;;;9.27;8.38;;;7.10;98.80;;;;;;5117795;28;20208;-67
2022/04/18 07:01:12;;;;;;;10.45;8.40;;;7.40;99.10;;;;;;5117432;27;20727;-67
2022/04/18 07:03:39;;;;;;;8.43;7.57;;;7.50;99.60;;;;;;5117522;27;20558;-67
2022/04/18 07:06:06;;;;;;;9.50;8.50;;;7.60;98.20;;;;;;5117430;28;20221;-67
2022/04/18 07:08:33;;;;;;;8.60;7.80;;;7.70;98.10;;;;;;5117401;28;20197;-67
2022/04/18 07:11:00;;;;;;;8.15;7.32;;;7.90;97.50;;;;;;5117061;28;20205;-67
2022/04/18 07:13:27;;;;;;;8.57;7.78;;;8.00;95.70;;;;;;5116977;28;20666;-67
2022/04/18 07:15:55;;;;;;;11.43;7.82;;;8.00;95.70;;;;;;5117071;28;20204;-67
2022/04/18 07:18:22;;;;;;;8.80;7.90;;;8.10;95.00;;;;;;5117337;28;20212;-67
2022/04/18 07:20:48;;;;;;;7.93;7.13;;;8.20;95.00;;;;;;5117194;27;20744;-67
2022/04/18 07:23:15;;;;;;;8.70;7.50;;;8.40;94.20;;;;;;5116860;28;20225;-67
2022/04/18 07:25:42;;;;;;;8.82;7.85;;;8.50;93.80;;;;;;5116835;28;20217;-67
2022/04/18 07:28:09;;;;;;;8.70;7.18;;;8.60;93.90;;;;;;5117004;28;20205;-67
2022/04/18 07:30:35;;;;;;;8.27;7.45;;;8.70;92.80;;;;;;5116868;28;20210;-67
2022/04/18 07:33:04;;;;;;;8.07;7.28;;;8.80;92.20;;;;;;5116527;28;20264;-67
2022/04/18 07:35:31;;;;;;;8.10;7.10;;;8.80;91.60;;;;;;5116972;28;20575;-67
2022/04/18 07:40:38;;;;;;;8.70;7.68;;;8.90;92.10;;;;;;5083045;28;20201;-67
2022/04/18 07:43:05;;;;;;;8.30;7.50;;;8.90;91.00;;;;;;5116355;27;20221;-67
2022/04/18 07:45:32;;;;;;;8.57;7.38;;;8.90;90.90;;;;;;5116680;27;20204;-67
2022/04/18 07:47:59;;;;;;;9.50;7.78;;;9.00;91.00;;;;;;5116715;28;20228;-67
2022/04/18 07:53:08;;;;;;;11.68;7.72;;;9.30;90.80;;;;;;5115674;28;20225;-67
2022/04/18 07:55:35;;;;;;;10.40;7.32;;;9.40;89.60;;;;;;5116585;28;20201;-67
2022/04/18 07:58:01;;;;;;;7.90;7.18;;;9.50;90.30;;;;;;5116518;28;20574;-67
2022/04/18 08:00:28;;;;;;;8.88;7.40;;;9.60;88.80;;;;;;5116723;28;20205;-67
2022/04/18 08:02:55;;;;;;;8.80;7.55;;;9.70;89.60;;;;;;5116361;27;20221;-67
2022/04/18 08:05:22;;;;;;;8.30;7.50;;;9.80;88.30;;;;;;5116186;28;20622;-67
2022/04/18 08:07:50;;;;;;;7.97;7.13;;;10.00;86.10;;;;;;5116206;28;20201;-67
2022/04/18 08:10:17;;;;;;;9.02;7.20;;;10.20;84.60;;;;;;5116258;28;20208;-67
2022/04/18 08:12:44;;;;;;;6.78;6.10;;;10.40;85.20;;;;;;5116159;28;20221;-67
2022/04/18 08:15:10;;;;;;;8.15;7.32;;;10.60;84.90;;;;;;5115789;28;20201;-67
2022/04/18 08:17:37;;;;;;;7.25;6.55;;;10.70;81.50;;;;;;5116107;28;20194;-67
2022/04/18 08:20:05;;;;;;;10.45;6.85;;;10.90;80.60;;;;;;5116138;28;20205;-67
2022/04/18 08:22:32;;;;;;;8.38;6.60;;;10.80;79.20;;;;;;5116280;28;20308;-67
2022/04/18 08:25:00;;;;;;;8.32;7.53;;;10.90;80.70;;;;;;5115831;28;20229;-67
2022/04/18 08:27:28;;;;;;;7.80;7.10;;;10.90;78.60;;;;;;5115878;28;20225;-67
2022/04/18 08:29:55;;;;;;;7.30;6.60;;;10.90;77.40;;;;;;5115567;28;20213;-67
2022/04/18 08:32:22;;;;;;;7.15;6.45;;;10.90;78.60;;;;;;5115965;28;20766;-67
2022/04/18 08:34:48;;;;;;;8.48;7.20;;;11.00;77.80;;;;;;5115417;28;20236;-67
2022/04/18 08:37:15;;;;;;;6.90;6.20;;;11.10;77.30;;;;;;5116058;28;20240;-67
2022/04/18 08:39:42;;;;;;;7.30;6.20;;;11.20;76.70;;;;;;5115716;27;20204;-67
2022/04/18 08:42:13;;;;;;;7.90;6.45;;;11.30;77.00;;;;;;5115512;28;20317;-67
2022/04/18 08:44:41;;;;;;;6.75;6.05;;;11.40;76.40;;;;;;5115499;28;20190;-67
2022/04/18 08:47:08;;;;;;;7.45;6.38;;;11.50;75.90;;;;;;5115512;28;20253;-67
2022/04/18 08:55:04;;;;;;;6.32;5.72;;;11.90;74.00;;;;;;5115390;28;20685;-67
2022/04/18 08:57:33;;;;;;;6.35;5.70;;;12.50;72.40;;;;;;5115335;28;20194;-67
2022/04/18 09:00:00;;;;;;;6.60;5.75;;;13.60;69.40;;;;;;5115309;28;20210;-67
2022/04/18 09:02:28;;;;;;;7.10;6.25;;;15.20;65.40;;;;;;5115203;28;20224;-67
2022/04/18 09:04:55;;;;;;;6.88;6.28;;;16.70;58.50;;;;;;5114583;27;20204;-67
2022/04/18 09:07:23;;;;;;;7.18;6.30;;;17.30;55.00;;;;;;5115016;28;20221;-67
2022/04/18 09:09:55;;;;;;;6.40;5.80;;;16.50;53.70;;;;;;5115381;28;20232;-67
2022/04/18 09:12:27;;;;;;;6.53;5.93;;;16.60;54.90;;;;;;5115115;28;20235;-67
2022/04/18 09:14:55;;;;;;;6.60;5.97;;;17.30;55.00;;;;;;5114794;28;20685;-67
2022/04/18 09:17:30;;;;;;;6.28;5.68;;;18.40;53.20;;;;;;5114993;28;20204;-67
2022/04/18 09:20:08;;;;;;;7.22;6.30;;;18.80;49.00;;;;;;5114809;28;20209;-67
2022/04/18 09:22:42;;;;;;;6.00;5.50;;;18.50;49.50;;;;;;5114850;28;20232;-67
2022/04/18 09:25:16;;;;;;;6.53;5.93;;;18.50;48.60;;;;;;5114929;28;20197;-67
2022/04/18 09:27:52;;;;;;;6.20;5.70;;;19.50;48.10;;;;;;5114765;28;20504;-67
2022/04/18 09:30:21;;;;;;;6.20;5.70;;;19.70;45.50;;;;;;5114635;27;20464;-67
2022/04/18 09:32:56;;;;;;;5.83;5.33;;;21.60;45.30;;;;;;5114744;28;20923;-68
2022/04/18 09:35:25;;;;;;;5.30;4.90;;;23.20;41.20;;;;;;5114705;28;20442;-68
2022/04/18 09:37:53;;;;;;;6.40;5.90;;;25.00;41.10;;;;;;5114515;28;20513;-68
2022/04/18 09:40:22;;;;;;;6.30;5.80;;;25.90;35.90;;;;;;5114578;28;20439;-68
2022/04/18 09:42:52;;;;;;;6.23;5.73;;;25.90;34.10;;;;;;5114253;28;20875;-68
2022/04/18 09:45:21;;;;;;;6.47;4.83;;;26.80;33.70;;;;;;5114399;28;20444;-68
2022/04/18 09:47:55;;;;;;;6.07;5.47;;;27.50;33.10;;;;;;5114366;28;20544;-68
2022/04/18 09:53:08;;;;;;;5.40;5.00;;;29.70;29.90;;;;;;5114805;28;20481;-69
2022/04/18 09:55:35;;;;;;;5.30;4.90;;;30.00;28.20;;;;;;5114292;28;20775;-68
2022/04/18 09:58:03;;;;;;;5.33;4.93;;;29.40;28.00;;;;;;5114533;27;20441;-68
2022/04/18 10:00:31;;;;;;;5.50;5.10;;;29.20;28.50;;;;;;5114151;28;20928;-69
2022/04/18 10:02:58;;;;;;;5.10;4.70;;;28.50;28.20;;;;;;5114089;28;20557;-70
2022/04/18 10:05:27;;;;;;;5.83;5.40;;;28.90;28.70;;;;;;5114186;28;20440;-68
2022/04/18 10:07:55;;;;;;;5.50;5.03;;;26.80;28.70;;;;;;5113756;28;20475;-68
2022/04/18 10:10:22;;;;;;;5.47;5.07;;;27.10;30.50;;;;;;5114157;28;20511;-69
2022/04/18 10:12:50;;;;;;;5.17;4.77;;;28.40;29.40;;;;;;5114147;28;20463;-69
2022/04/18 10:15:17;;;;;;;5.53;5.13;;;29.50;28.40;;;;;;5112998;28;20786;-69
2022/04/18 10:17:46;;;;;;;5.50;5.07;;;30.80;27.50;;;;;;5113983;28;20943;-68
2022/04/18 10:20:25;;;;;;;5.00;4.60;;;30.00;26.80;;;;;;5113935;28;20440;-69
2022/04/18 10:23:43;;;;;;;5.13;4.83;;;29.50;27.20;;;;;;5114070;28;20462;-69
2022/04/18 10:26:50;;;;;;;4.90;4.50;;;30.10;27.20;;;;;;5077561;28;20458;-68
2022/04/18 10:29:23;;;;;;;5.03;4.73;;;30.10;27.10;;;;;;5113986;28;20503;-69
2022/04/18 10:31:53;;;;;;;5.40;5.00;;;29.20;26.90;;;;;;5113765;28;20463;-69
2022/04/18 10:34:24;;;;;;;6.10;5.70;;;29.30;27.20;;;;;;5113534;28;20449;-68
2022/04/18 10:36:53;;;;;;;5.30;4.90;;;28.70;27.00;;;;;;5113835;28;20478;-68
2022/04/18 10:39:20;;;;;;;5.90;5.40;;;28.30;28.00;;;;;;5113883;28;20805;-68
2022/04/18 10:41:49;;;;;;;5.80;5.30;;;28.20;28.20;;;;;;5113538;28;20462;-68
2022/04/18 10:44:16;;;;;;;5.60;5.20;;;28.40;28.20;;;;;;5113933;28;20471;-68
2022/04/18 10:47:01;;;;;;;4.83;4.53;;;28.40;28.10;;;;;;5113829;28;20433;-68
2022/04/18 10:49:31;;;;;;;5.53;5.03;;;28.70;28.20;;;;;;5113778;28;20453;-68
2022/04/18 10:52:05;;;;;;;4.87;4.50;;;29.20;27.60;;;;;;5113789;28;20459;-69
2022/04/18 10:54:32;;;;;;;4.97;4.57;;;29.90;27.00;;;;;;5113681;28;20488;-69
2022/04/18 10:57:01;;;;;;;4.40;4.10;;;29.60;26.80;;;;;;5113626;28;20810;-69
2022/04/18 10:59:29;;;;;;;4.80;4.40;;;30.30;26.90;;;;;;5113682;28;20470;-69
2022/04/18 11:01:58;;;;;;;4.57;4.27;;;30.60;26.70;;;;;;5113598;28;20542;-69
2022/04/18 11:04:26;;;;;;;5.00;4.60;;;29.40;27.40;;;;;;5113412;28;20480;-68
2022/04/18 11:07:03;;;;;;;5.60;5.20;;;29.10;27.80;;;;;;5113483;28;20441;-69
2022/04/18 11:09:32;;;;;;;5.23;4.83;;;29.20;27.30;;;;;;5113691;28;20443;-68
2022/04/18 11:12:06;;;;;;;5.47;4.97;;;28.10;28.00;;;;;;5113666;28;20464;-68
2022/04/18 11:14:53;;;;;;;4.80;4.40;;;28.30;28.50;;;;;;5113395;28;20426;-69
2022/04/18 11:17:33;;;;;;;5.60;5.20;;;28.70;28.10;;;;;;5113332;28;20478;-68
2022/04/18 11:20:35;;;;;;;5.13;4.73;;;27.10;28.00;;;;;;5113474;28;21009;-69
2022/04/18 11:23:25;;;;;;;5.43;4.93;;;27.10;29.90;;;;;;5050591;28;20465;-69
2022/04/18 11:25:56;;;;;;;5.30;4.80;;;27.10;29.60;;;;;;5050754;28;20935;-68
2022/04/18 11:28:23;;;;;;;4.77;4.37;;;26.60;29.00;;;;;;5093910;28;20446;-69
2022/04/18 11:30:51;;;;;;;5.07;4.67;;;25.80;30.30;;;;;;5117347;28;20793;-68
2022/04/18 11:33:19;;;;;;;5.20;4.80;;;25.00;30.80;;;;;;5117004;28;20552;-68
2022/04/18 11:35:45;;;;;;;5.27;4.87;;;24.20;31.40;;;;;;5116745;27;20934;-68
2022/04/18 11:38:13;;;;;;;5.20;4.80;;;23.30;32.60;;;;;;5117380;28;20490;-68
2022/04/18 11:40:44;;;;;;;5.10;4.60;;;22.90;33.30;;;;;;5116727;28;20447;-68
2022/04/18 11:43:12;;;;;;;6.33;4.67;;;22.40;34.40;;;;;;5116672;28;20928;-68
2022/04/18 11:45:39;;;;;;;4.73;4.33;;;21.80;35.10;;;;;;5116660;27;20935;-68
2022/04/18 11:48:06;;;;;;;4.10;3.80;;;21.70;35.60;;;;;;5116458;28;20441;-68
2022/04/18 11:50:36;;;;;;;5.03;4.63;;;21.60;35.10;;;;;;5116724;27;20461;-68
2022/04/18 11:53:06;;;;;;;4.87;4.43;;;21.50;35.00;;;;;;5116480;28;20473;-68
2022/04/18 11:55:33;;;;;;;5.83;5.27;;;21.50;35.30;;;;;;5116469;28;20446;-68
2022/04/18 11:58:01;;;;;;;4.80;4.40;;;21.30;34.90;;;;;;5116377;27;20519;-68
2022/04/18 12:08:45;;;;;;;5.63;5.13;;;20.30;36.80;;;;;;5116375;28;20768;-68
2022/04/18 12:11:11;;;;;;;4.87;4.43;;;20.10;36.40;;;;;;5115930;28;20442;-68
2022/04/18 12:13:43;;;;;;;5.30;4.80;;;19.80;36.60;;;;;;5116258;28;20445;-68
2022/04/18 12:16:11;;;;;;;5.23;4.73;;;19.60;37.50;;;;;;5116011;28;20528;-67
2022/04/18 12:18:39;;;;;;;4.90;4.50;;;19.60;37.70;;;;;;5115947;28;20483;-68
2022/04/18 12:21:06;;;;;;;4.25;3.85;;;19.60;37.50;;;;;;5115852;28;20216;-68
2022/04/18 12:23:32;;;;;;;4.40;4.10;;;19.80;38.00;;;;;;5115840;28;20200;-68
2022/04/18 12:26:01;;;;;;;5.57;5.07;;;19.90;37.70;;;;;;5116059;28;20522;-67
2022/04/18 12:28:29;;;;;;;4.85;4.45;;;19.20;37.20;;;;;;5115668;28;20204;-68
2022/04/18 12:30:58;;;;;;;4.20;3.80;;;18.80;39.00;;;;;;5115898;28;20210;-67
2022/04/18 12:33:26;;;;;;;5.10;4.25;;;19.00;39.50;;;;;;5115347;27;20226;-68
2022/04/18 12:35:54;;;;;;;4.50;4.03;;;19.10;39.70;;;;;;5115762;28;20206;-68
2022/04/18 12:38:30;;;;;;;4.63;4.23;;;19.20;39.20;;;;;;5114713;28;20223;-68
2022/04/18 12:40:59;;;;;;;4.05;3.65;;;19.50;37.90;;;;;;5115615;28;20922;-67
2022/04/18 12:43:28;;;;;;;3.80;3.50;;;19.70;38.30;;;;;;5115733;28;20230;-68
2022/04/18 12:45:59;;;;;;;4.40;4.00;;;19.80;37.20;;;;;;5115630;28;20530;-68
2022/04/18 12:48:27;;;;;;;4.57;4.20;;;19.80;37.60;;;;;;5115525;28;20224;-68
2022/04/18 12:50:55;;;;;;;4.40;4.00;;;20.00;37.20;;;;;;5115762;28;20440;-68
2022/04/18 12:53:43;;;;;;;3.97;3.67;;;19.80;36.60;;;;;;5115341;28;20469;-68
2022/04/18 12:56:10;;;;;;;4.90;4.00;;;19.40;37.90;;;;;;5115616;28;20207;-68
2022/04/18 12:58:39;;;;;;;4.68;4.20;;;19.10;38.50;;;;;;5115198;28;20636;-68
2022/04/18 13:01:08;;;;;;;4.18;3.88;;;19.10;38.50;;;;;;5115231;28;20265;-68
2022/04/18 13:03:42;;;;;;;5.43;4.13;;;19.30;38.00;;;;;;5115170;28;20201;-68
2022/04/18 13:06:09;;;;;;;3.70;3.40;;;19.30;37.80;;;;;;5115259;28;20447;-68
2022/04/18 13:08:37;;;;;;;6.30;4.15;;;19.50;38.20;;;;;;5115181;28;20591;-68
2022/04/18 13:11:05;;;;;;;3.80;3.50;;;19.60;37.90;;;;;;5114967;28;20206;-68
2022/04/18 13:13:32;;;;;;;3.90;3.60;;;19.70;37.40;;;;;;5114948;28;20802;-68
2022/04/18 13:16:24;;;;;;;3.80;3.50;;;19.60;37.50;;;;;;5115040;28;20561;-68
2022/04/18 13:18:59;;;;;;;3.78;3.47;;;19.60;37.70;;;;;;5114908;28;20271;-68
2022/04/18 13:21:28;;;;;;;3.67;3.37;;;19.70;38.00;;;;;;5114899;28;20654;-68
2022/04/18 13:23:55;;;;;;;4.40;4.00;;;19.90;38.00;;;;;;5114707;28;20444;-68
2022/04/18 13:26:21;;;;;;;3.87;3.57;;;19.90;37.10;;;;;;5115034;28;20435;-68
2022/04/18 13:28:48;;;;;;;4.93;3.50;;;19.90;37.10;;;;;;5114450;28;20451;-68
2022/04/18 13:31:15;;;;;;;3.60;3.30;;;19.50;37.40;;;;;;5114521;28;20292;-67